createdAt,value
2022-12-09T00:01:12.678Z,97.50
2022-12-09T00:03:42.828Z,97.69
2022-12-09T00:06:13.237Z,97.75
2022-12-09T00:08:41.577Z,97.83
2022-12-09T00:11:09.747Z,97.79
2022-12-09T00:13:38.470Z,97.86
2022-12-09T00:16:07.375Z,97.71
2022-12-09T00:18:35.940Z,97.71
2022-12-09T00:21:14.568Z,97.68
2022-12-09T00:23:42.892Z,97.81
2022-12-09T00:26:11.367Z,97.81
2022-12-09T00:28:39.505Z,97.77
2022-12-09T00:31:09.816Z,97.74
2022-12-09T00:33:37.850Z,97.70
2022-12-09T00:36:07.411Z,97.73
2022-12-09T00:38:36.828Z,97.54
2022-12-09T00:41:05.684Z,97.32
2022-12-09T00:43:34.205Z,97.16
2022-12-09T00:46:02.977Z,97.25
2022-12-09T00:48:34.296Z,97.37
2022-12-09T00:51:02.789Z,97.60
2022-12-09T00:53:31.022Z,97.84
2022-12-09T00:56:00.441Z,98.08
2022-12-09T00:58:28.625Z,98.24
2022-12-09T01:00:56.981Z,98.40
2022-12-09T01:03:25.392Z,98.51
2022-12-09T01:05:53.979Z,98.58
2022-12-09T01:08:22.364Z,98.58
2022-12-09T01:10:50.483Z,98.59
2022-12-09T01:13:19.766Z,98.53
2022-12-09T01:15:47.867Z,98.56
2022-12-09T01:18:16.373Z,98.64
2022-12-09T01:20:44.388Z,98.58
2022-12-09T01:23:12.647Z,98.47
2022-12-09T01:25:40.709Z,98.41
2022-12-09T01:28:09.040Z,98.37
2022-12-09T01:30:38.628Z,98.38
2022-12-09T01:33:06.926Z,98.46
2022-12-09T01:35:35.454Z,98.55
2022-12-09T01:38:03.479Z,98.62
2022-12-09T01:40:31.626Z,98.66
2022-12-09T01:42:59.580Z,98.69
2022-12-09T01:45:43.038Z,98.65
2022-12-09T01:48:14.186Z,98.65
2022-12-09T01:50:46.859Z,98.68
2022-12-09T01:53:16.148Z,98.66
2022-12-09T01:55:45.132Z,98.63
2022-12-09T01:58:14.137Z,98.56
2022-12-09T02:00:44.130Z,98.52
2022-12-09T02:03:12.722Z,98.58
2022-12-09T02:05:41.207Z,98.62
2022-12-09T02:08:13.351Z,98.62
2022-12-09T02:10:48.823Z,98.60
2022-12-09T02:13:23.638Z,98.60
2022-12-09T02:15:55.876Z,98.62
2022-12-09T02:18:27.949Z,98.58
2022-12-09T02:20:59.323Z,98.60
2022-12-09T02:23:31.355Z,98.59
2022-12-09T02:26:08.141Z,98.57
2022-12-09T02:28:57.564Z,98.60
2022-12-09T02:31:40.816Z,98.65
2022-12-09T02:34:16.000Z,98.66
2022-12-09T02:36:50.592Z,98.69
2022-12-09T02:39:19.810Z,98.72
2022-12-09T02:41:48.998Z,98.69
2022-12-09T02:44:20.026Z,98.60
2022-12-09T02:46:48.248Z,98.63
2022-12-09T02:49:17.742Z,98.61
2022-12-09T02:51:46.285Z,98.57
2022-12-09T02:54:15.953Z,98.63
2022-12-09T02:56:47.355Z,98.67
2022-12-09T02:59:15.432Z,98.70
2022-12-09T03:01:50.018Z,98.79
2022-12-09T03:04:21.895Z,98.83
2022-12-09T03:06:53.079Z,98.86
2022-12-09T03:09:23.411Z,98.84
2022-12-09T03:11:52.039Z,98.83
2022-12-09T03:14:23.142Z,98.86
2022-12-09T03:16:54.594Z,98.86
2022-12-09T03:19:27.262Z,98.83
2022-12-09T03:21:58.502Z,98.81
2022-12-09T03:24:29.567Z,98.74
2022-12-09T03:26:58.685Z,98.73
2022-12-09T03:29:28.050Z,98.77
2022-12-09T03:31:57.083Z,98.78
2022-12-09T03:34:31.330Z,98.80
2022-12-09T03:37:00.645Z,98.83
2022-12-09T03:39:33.499Z,98.83
2022-12-09T03:42:05.043Z,98.83
2022-12-09T03:44:37.046Z,98.77
2022-12-09T03:47:06.106Z,98.81
2022-12-09T03:49:35.784Z,98.81
2022-12-09T03:52:07.276Z,98.81
2022-12-09T03:54:40.127Z,98.82
2022-12-09T03:57:17.013Z,98.81
2022-12-09T03:59:52.021Z,98.81
2022-12-09T04:02:20.219Z,98.77
2022-12-09T04:04:50.379Z,98.78
2022-12-09T04:07:18.964Z,98.82
2022-12-09T04:09:47.107Z,98.85
2022-12-09T04:12:15.229Z,98.82
2022-12-09T04:14:43.278Z,98.86
2022-12-09T04:17:12.734Z,98.86
2022-12-09T04:19:40.959Z,98.86
2022-12-09T04:22:10.589Z,98.90
2022-12-09T04:24:38.917Z,98.89
2022-12-09T04:27:07.022Z,98.93
2022-12-09T04:29:35.071Z,98.92
2022-12-09T04:32:03.096Z,98.93
2022-12-09T04:34:31.452Z,98.96
2022-12-09T04:36:59.501Z,98.93
2022-12-09T04:39:29.212Z,98.94
2022-12-09T04:41:57.491Z,98.96
2022-12-09T04:44:26.032Z,98.96
2022-12-09T04:46:54.256Z,98.93
2022-12-09T04:49:22.307Z,98.94
2022-12-09T04:51:50.342Z,98.99
2022-12-09T04:54:18.547Z,98.95
2022-12-09T04:56:49.535Z,98.98
2022-12-09T04:59:17.575Z,98.98
2022-12-09T05:01:45.826Z,98.98
2022-12-09T05:04:14.209Z,98.98
2022-12-09T05:06:42.894Z,98.96
2022-12-09T05:09:13.412Z,98.91
2022-12-09T05:11:42.145Z,98.86
2022-12-09T05:14:11.907Z,98.84
2022-12-09T05:16:40.040Z,98.82
2022-12-09T05:19:08.500Z,98.83
2022-12-09T05:21:36.946Z,98.83
2022-12-09T05:24:06.051Z,98.83
2022-12-09T05:26:34.498Z,98.89
2022-12-09T05:29:02.558Z,98.90
2022-12-09T05:31:31.955Z,98.93
2022-12-09T05:34:00.631Z,98.93
2022-12-09T05:36:29.138Z,98.94
2022-12-09T05:38:57.386Z,98.95
2022-12-09T05:41:25.982Z,98.94
2022-12-09T05:43:54.818Z,98.95
2022-12-09T05:46:23.485Z,99.00
2022-12-09T05:48:53.213Z,99.01
2022-12-09T05:51:24.653Z,98.99
2022-12-09T05:53:53.950Z,98.98
2022-12-09T05:56:23.457Z,98.96
2022-12-09T05:58:55.982Z,98.95
2022-12-09T06:01:25.034Z,99.00
2022-12-09T06:03:55.483Z,98.98
2022-12-09T06:06:26.783Z,99.03
2022-12-09T06:08:56.323Z,99.12
2022-12-09T06:11:24.864Z,99.09
2022-12-09T06:13:53.158Z,99.02
2022-12-09T06:16:23.335Z,99.03
2022-12-09T06:18:51.882Z,99.03
2022-12-09T06:21:22.231Z,99.00
2022-12-09T06:23:51.571Z,99.01
2022-12-09T06:26:21.530Z,99.02
2022-12-09T06:28:50.240Z,99.02
2022-12-09T06:31:18.905Z,99.05
2022-12-09T06:33:56.339Z,98.99
2022-12-09T06:36:28.095Z,99.08
2022-12-09T06:38:57.919Z,99.05
2022-12-09T06:41:26.950Z,99.04
2022-12-09T06:43:57.774Z,99.08
2022-12-09T06:46:27.074Z,99.09
2022-12-09T06:48:56.622Z,99.14
2022-12-09T06:51:26.881Z,99.03
2022-12-09T06:53:55.364Z,99.06
2022-12-09T06:56:25.415Z,99.07
2022-12-09T06:58:54.178Z,99.12
2022-12-09T07:01:24.237Z,99.08
2022-12-09T07:03:54.666Z,99.03
2022-12-09T07:06:28.762Z,99.07
2022-12-09T07:08:58.293Z,99.04
2022-12-09T07:11:26.606Z,99.00
2022-12-09T07:13:54.854Z,99.04
2022-12-09T07:16:23.813Z,99.04
2022-12-09T07:18:53.118Z,99.10
2022-12-09T07:21:22.904Z,99.06
2022-12-09T07:23:52.620Z,99.02
2022-12-09T07:26:21.462Z,99.00
2022-12-09T07:28:50.488Z,98.97
2022-12-09T07:31:20.762Z,98.98
2022-12-09T07:33:50.039Z,99.05
2022-12-09T07:36:21.206Z,99.06
2022-12-09T07:38:50.340Z,99.07
2022-12-09T07:41:20.324Z,99.06
2022-12-09T07:43:48.973Z,99.10
2022-12-09T07:46:19.453Z,99.08
2022-12-09T07:48:49.182Z,99.16
2022-12-09T07:51:17.933Z,99.16
2022-12-09T07:53:46.922Z,99.18
2022-12-09T07:56:16.953Z,99.20
2022-12-09T07:58:48.644Z,99.17
2022-12-09T08:01:19.061Z,99.14
2022-12-09T08:03:48.461Z,99.10
2022-12-09T08:06:19.216Z,99.03
2022-12-09T08:08:48.459Z,99.07
2022-12-09T08:11:18.828Z,99.10
2022-12-09T08:13:49.053Z,99.07
2022-12-09T08:16:19.832Z,99.13
2022-12-09T08:18:49.604Z,99.11
2022-12-09T08:21:19.840Z,99.11
2022-12-09T08:23:48.727Z,99.09
2022-12-09T08:26:19.211Z,99.06
2022-12-09T08:28:49.484Z,99.03
2022-12-09T08:31:21.127Z,98.98
2022-12-09T08:33:49.833Z,99.03
2022-12-09T08:36:20.563Z,99.00
2022-12-09T08:38:49.459Z,98.94
2022-12-09T08:41:19.433Z,98.95
2022-12-09T08:43:49.257Z,98.88
2022-12-09T08:46:17.895Z,98.91
2022-12-09T08:48:47.396Z,98.94
2022-12-09T08:51:16.443Z,98.90
2022-12-09T08:53:45.652Z,98.98
2022-12-09T08:56:19.553Z,98.98
2022-12-09T08:58:49.458Z,98.97
2022-12-09T09:01:19.640Z,99.02
2022-12-09T09:03:49.299Z,99.06
2022-12-09T09:06:22.221Z,98.96
2022-12-09T09:08:50.981Z,98.99
2022-12-09T09:11:20.781Z,99.05
2022-12-09T09:13:52.415Z,99.10
2022-12-09T09:16:22.857Z,99.12
2022-12-09T09:18:51.795Z,99.13
2022-12-09T09:21:28.473Z,99.07
2022-12-09T09:23:57.128Z,99.12
2022-12-09T09:26:28.177Z,99.08
2022-12-09T09:28:58.614Z,99.03
2022-12-09T09:31:26.804Z,99.06
2022-12-09T09:33:56.367Z,99.04
2022-12-09T09:36:25.887Z,99.02
2022-12-09T09:38:55.307Z,99.04
2022-12-09T09:41:29.332Z,99.06
2022-12-09T09:43:59.060Z,99.02
2022-12-09T09:46:36.047Z,99.00
2022-12-09T09:49:05.779Z,99.01
2022-12-09T09:51:35.090Z,98.96
2022-12-09T09:54:08.466Z,98.98
2022-12-09T09:56:41.146Z,98.94
2022-12-09T09:59:16.436Z,98.99
2022-12-09T10:01:47.856Z,98.96
2022-12-09T10:04:21.869Z,98.95
2022-12-09T10:06:53.399Z,98.93
2022-12-09T10:09:24.858Z,98.91
2022-12-09T10:11:59.992Z,98.93
2022-12-09T10:14:42.876Z,99.02
2022-12-09T10:17:19.417Z,98.97
2022-12-09T10:19:49.717Z,98.93
2022-12-09T10:22:21.227Z,98.96
2022-12-09T10:24:51.762Z,99.05
2022-12-09T10:27:29.133Z,99.04
2022-12-09T10:30:00.194Z,98.84
2022-12-09T10:32:33.558Z,98.77
2022-12-09T10:35:03.367Z,98.71
2022-12-09T10:37:35.227Z,98.77
2022-12-09T10:40:24.884Z,98.80
2022-12-09T10:43:13.050Z,98.85
2022-12-09T10:46:16.639Z,98.89
2022-12-09T10:48:38.780Z,98.99
2022-12-09T10:51:14.172Z,99.01
2022-12-09T10:53:48.564Z,99.06
2022-12-09T10:56:22.104Z,99.06
2022-12-09T10:58:50.257Z,99.06
2022-12-09T11:01:20.224Z,99.09
2022-12-09T11:03:50.901Z,98.93
2022-12-09T11:06:26.091Z,98.84
2022-12-09T11:08:56.878Z,98.67
2022-12-09T11:11:46.374Z,98.73
2022-12-09T11:14:23.082Z,98.62
2022-12-09T11:16:54.495Z,98.69
2022-12-09T11:19:33.462Z,98.74
2022-12-09T11:22:38.291Z,98.74
2022-12-09T11:25:25.076Z,98.77
2022-12-09T11:27:55.399Z,98.78
2022-12-09T11:30:27.125Z,98.83
2022-12-09T11:33:02.398Z,98.90
2022-12-09T11:35:34.121Z,98.85
2022-12-09T11:38:05.464Z,98.77
2022-12-09T11:40:34.590Z,98.65
2022-12-09T11:43:03.480Z,98.69
2022-12-09T11:45:35.219Z,98.76
2022-12-09T11:48:27.512Z,98.79
2022-12-09T11:50:56.294Z,98.82
2022-12-09T11:53:29.585Z,98.89
2022-12-09T11:56:01.171Z,98.62
2022-12-09T11:58:32.057Z,98.51
2022-12-09T12:01:04.457Z,98.46
2022-12-09T12:03:38.879Z,98.51
2022-12-09T12:06:10.647Z,98.47
2022-12-09T12:08:45.200Z,98.60
2022-12-09T12:11:15.683Z,98.62
2022-12-09T12:13:46.349Z,98.69
2022-12-09T12:16:19.323Z,98.68
2022-12-09T12:18:52.420Z,98.60
2022-12-09T12:21:25.284Z,98.54
2022-12-09T12:24:32.617Z,98.53
2022-12-09T12:27:10.060Z,98.56
2022-12-09T12:29:47.539Z,98.52
2022-12-09T12:32:26.737Z,98.46
2022-12-09T12:35:15.072Z,98.43
2022-12-09T12:37:54.138Z,98.42
2022-12-09T12:40:29.088Z,98.45
2022-12-09T12:43:21.227Z,98.60
2022-12-09T12:46:11.273Z,98.58
2022-12-09T12:48:49.225Z,98.43
2022-12-09T12:51:26.281Z,98.43
2022-12-09T12:53:58.671Z,98.42
2022-12-09T12:56:30.716Z,98.37
2022-12-09T12:59:05.435Z,98.21
2022-12-09T13:01:35.925Z,98.27
2022-12-09T13:04:14.454Z,98.31
2022-12-09T13:06:48.259Z,98.25
2022-12-09T13:09:20.079Z,98.29
2022-12-09T13:11:58.678Z,98.18
2022-12-09T13:14:32.023Z,98.11
2022-12-09T13:17:02.187Z,98.17
2022-12-09T13:19:35.592Z,98.21
2022-12-09T13:22:05.595Z,98.34
2022-12-09T13:24:42.215Z,98.36
2022-12-09T13:27:15.495Z,98.29
2022-12-09T13:29:46.576Z,98.12
2022-12-09T13:32:27.188Z,98.04
2022-12-09T13:35:00.504Z,98.06
2022-12-09T13:37:57.699Z,98.14
2022-12-09T13:40:31.779Z,98.16
2022-12-09T13:43:13.351Z,98.15
2022-12-09T13:45:50.930Z,98.12
2022-12-09T13:48:52.088Z,98.09
2022-12-09T13:51:21.003Z,98.06
2022-12-09T13:53:54.322Z,97.96
2022-12-09T13:56:28.275Z,97.96
2022-12-09T13:59:17.823Z,97.91
2022-12-09T14:01:49.278Z,97.91
2022-12-09T14:04:22.451Z,97.81
2022-12-09T14:06:56.012Z,97.71
2022-12-09T14:09:39.728Z,97.73
2022-12-09T14:12:10.107Z,97.67
2022-12-09T14:14:56.488Z,97.66
2022-12-09T14:17:58.989Z,97.67
2022-12-09T14:20:32.484Z,97.69
2022-12-09T14:23:24.623Z,97.60
2022-12-09T14:26:02.796Z,97.61
2022-12-09T14:28:55.309Z,97.46
2022-12-09T14:31:52.252Z,97.48
2022-12-09T14:34:29.549Z,97.46
2022-12-09T14:37:06.623Z,97.43
2022-12-09T14:39:42.252Z,97.43
2022-12-09T14:42:19.697Z,97.46
2022-12-09T14:44:52.239Z,97.51
2022-12-09T14:47:24.048Z,97.54
2022-12-09T14:49:54.067Z,97.51
2022-12-09T14:52:24.862Z,97.55
2022-12-09T14:54:54.143Z,97.55
2022-12-09T14:57:26.193Z,97.50
2022-12-09T14:59:55.011Z,97.53
2022-12-09T15:02:26.393Z,97.39
2022-12-09T15:04:55.573Z,97.28
2022-12-09T15:07:25.947Z,97.20
2022-12-09T15:09:56.272Z,97.18
2022-12-09T15:12:31.288Z,97.30
2022-12-09T15:15:01.359Z,97.38
2022-12-09T15:17:32.440Z,97.45
2022-12-09T15:20:01.399Z,97.46
2022-12-09T15:22:31.665Z,97.27
2022-12-09T15:25:02.258Z,97.25
2022-12-09T15:27:31.825Z,97.28
2022-12-09T15:29:59.782Z,97.32
2022-12-09T15:32:29.490Z,97.30
2022-12-09T15:35:16.590Z,97.11
2022-12-09T15:37:45.801Z,97.01
2022-12-09T15:40:16.414Z,96.98
2022-12-09T15:42:48.835Z,96.98
2022-12-09T15:45:18.223Z,97.01
2022-12-09T15:47:49.009Z,97.06
2022-12-09T15:50:21.462Z,97.04
2022-12-09T15:52:51.366Z,97.09
2022-12-09T15:55:21.550Z,97.13
2022-12-09T15:57:53.729Z,97.24
2022-12-09T16:00:21.980Z,97.30
2022-12-09T16:02:50.479Z,97.36
2022-12-09T16:05:23.758Z,97.35
2022-12-09T16:07:56.888Z,97.19
2022-12-09T16:10:27.013Z,97.25
2022-12-09T16:13:11.185Z,97.32
2022-12-09T16:15:50.051Z,97.35
2022-12-09T16:18:22.542Z,97.39
2022-12-09T16:20:59.045Z,97.32
2022-12-09T16:23:27.839Z,97.27
2022-12-09T16:26:06.320Z,97.22
2022-12-09T16:28:36.239Z,97.12
2022-12-09T16:31:05.770Z,97.09
2022-12-09T16:33:39.319Z,97.05
2022-12-09T16:36:10.104Z,97.16
2022-12-09T16:38:38.363Z,97.21
2022-12-09T16:41:09.491Z,97.20
2022-12-09T16:43:53.935Z,97.24
2022-12-09T16:46:36.231Z,97.30
2022-12-09T16:49:05.280Z,97.23
2022-12-09T16:51:33.588Z,97.20
2022-12-09T16:54:02.131Z,97.26
2022-12-09T16:56:31.835Z,97.22
2022-12-09T16:59:01.258Z,97.21
2022-12-09T17:01:33.849Z,97.22
2022-12-09T17:04:05.055Z,97.19
2022-12-09T17:06:33.196Z,97.20
2022-12-09T17:09:01.201Z,97.20
2022-12-09T17:11:29.210Z,97.24
2022-12-09T17:13:57.295Z,97.31
2022-12-09T17:16:26.965Z,97.25
2022-12-09T17:18:55.092Z,97.24
2022-12-09T17:21:23.399Z,97.19
2022-12-09T17:23:51.342Z,97.22
2022-12-09T17:26:20.974Z,97.25
2022-12-09T17:28:49.866Z,97.15
2022-12-09T17:31:19.522Z,97.14
2022-12-09T17:33:49.007Z,97.08
2022-12-09T17:36:19.799Z,97.08
2022-12-09T17:38:47.914Z,97.10
2022-12-09T17:41:19.349Z,97.05
2022-12-09T17:43:47.562Z,97.04
2022-12-09T17:46:16.032Z,97.03
2022-12-09T17:48:44.055Z,97.01
2022-12-09T17:51:17.754Z,96.95
2022-12-09T17:53:46.574Z,96.93
2022-12-09T17:56:16.769Z,96.97
2022-12-09T17:58:45.034Z,96.92
2022-12-09T18:01:15.131Z,96.93
2022-12-09T18:04:04.418Z,96.89
2022-12-09T18:06:34.386Z,96.82
2022-12-09T18:09:03.920Z,96.82
2022-12-09T18:11:32.013Z,96.81
2022-12-09T18:14:01.420Z,96.79
2022-12-09T18:16:30.652Z,96.78
2022-12-09T18:19:02.491Z,96.86
2022-12-09T18:21:31.848Z,96.74
2022-12-09T18:23:59.858Z,96.78
2022-12-09T18:26:31.366Z,96.78
2022-12-09T18:29:02.391Z,96.75
2022-12-09T18:31:30.763Z,96.73
2022-12-09T18:33:58.773Z,96.74
2022-12-09T18:36:29.128Z,96.73
2022-12-09T18:38:59.395Z,96.76
2022-12-09T18:41:29.579Z,96.77
2022-12-09T18:43:59.864Z,96.69
2022-12-09T18:46:29.644Z,96.65
2022-12-09T18:48:58.501Z,96.66
2022-12-09T18:51:26.991Z,96.66
2022-12-09T18:53:55.459Z,96.65
2022-12-09T18:56:24.878Z,96.67
2022-12-09T18:59:09.196Z,96.70
2022-12-09T19:01:40.383Z,96.68
2022-12-09T19:04:13.326Z,96.69
2022-12-09T19:06:43.499Z,96.78
2022-12-09T19:09:13.844Z,96.75
2022-12-09T19:11:44.143Z,96.74
2022-12-09T19:14:12.293Z,96.70
2022-12-09T19:16:40.795Z,96.65
2022-12-09T19:19:10.586Z,96.60
2022-12-09T19:21:39.311Z,96.57
2022-12-09T19:24:12.947Z,96.59
2022-12-09T19:26:42.660Z,96.53
2022-12-09T19:29:13.174Z,96.48
2022-12-09T19:31:43.130Z,96.46
2022-12-09T19:34:14.074Z,96.46
2022-12-09T19:36:42.513Z,96.41
2022-12-09T19:39:11.301Z,96.43
2022-12-09T19:41:40.780Z,96.42
2022-12-09T19:44:09.082Z,96.41
2022-12-09T19:46:38.817Z,96.37
2022-12-09T19:49:07.012Z,96.40
2022-12-09T19:51:35.021Z,96.37
2022-12-09T19:54:03.190Z,96.43
2022-12-09T19:56:31.230Z,96.43
2022-12-09T19:59:00.254Z,96.36
2022-12-09T20:01:31.772Z,96.42
2022-12-09T20:04:18.993Z,96.38
2022-12-09T20:06:51.594Z,96.41
2022-12-09T20:09:24.407Z,96.42
2022-12-09T20:11:52.944Z,96.46
2022-12-09T20:14:21.461Z,96.52
2022-12-09T20:16:49.580Z,96.47
2022-12-09T20:19:19.733Z,96.39
2022-12-09T20:21:47.763Z,96.34
2022-12-09T20:24:15.844Z,96.29
2022-12-09T20:26:44.302Z,96.27
2022-12-09T20:29:12.974Z,96.29
2022-12-09T20:31:42.332Z,96.23
2022-12-09T20:34:16.047Z,96.25
2022-12-09T20:36:46.708Z,96.30
2022-12-09T20:39:17.423Z,96.32
2022-12-09T20:41:45.998Z,96.39
2022-12-09T20:44:15.269Z,96.34
2022-12-09T20:46:46.685Z,96.37
2022-12-09T20:49:14.670Z,96.33
2022-12-09T20:51:45.100Z,96.35
2022-12-09T20:54:15.780Z,96.35
2022-12-09T20:56:43.881Z,96.31
2022-12-09T20:59:13.636Z,96.30
2022-12-09T21:01:43.549Z,96.30
2022-12-09T21:04:11.796Z,96.33
2022-12-09T21:06:41.673Z,96.32
2022-12-09T21:09:11.458Z,96.26
2022-12-09T21:11:40.905Z,96.22
2022-12-09T21:14:10.910Z,96.20
2022-12-09T21:16:40.607Z,96.18
2022-12-09T21:19:11.861Z,96.17
2022-12-09T21:21:41.450Z,96.15
2022-12-09T21:24:10.803Z,96.17
2022-12-09T21:26:39.422Z,96.18
2022-12-09T21:29:09.397Z,96.24
2022-12-09T21:31:38.729Z,96.18
2022-12-09T21:34:08.112Z,96.20
2022-12-09T21:36:37.410Z,96.20
2022-12-09T21:39:06.375Z,96.15
2022-12-09T21:41:36.372Z,96.14
2022-12-09T21:44:05.289Z,96.15
2022-12-09T21:46:36.377Z,96.11
2022-12-09T21:49:06.451Z,96.09
2022-12-09T21:51:36.258Z,96.08
2022-12-09T21:54:04.886Z,96.10
2022-12-09T21:56:35.763Z,96.08
2022-12-09T21:59:05.876Z,96.06
2022-12-09T22:01:37.098Z,96.10
2022-12-09T22:04:06.747Z,96.08
2022-12-09T22:06:35.542Z,96.06
2022-12-09T22:09:04.708Z,96.02
2022-12-09T22:11:35.240Z,96.05
2022-12-09T22:14:04.102Z,96.05
2022-12-09T22:16:35.668Z,95.99
2022-12-09T22:19:06.098Z,96.00
2022-12-09T22:21:34.705Z,95.98
2022-12-09T22:24:05.037Z,95.99
2022-12-09T22:26:33.681Z,95.96
2022-12-09T22:29:03.440Z,95.99
2022-12-09T22:31:32.958Z,95.99
2022-12-09T22:34:04.622Z,96.02
2022-12-09T22:36:33.014Z,95.98
2022-12-09T22:39:01.355Z,95.93
2022-12-09T22:41:30.428Z,95.98
2022-12-09T22:43:58.784Z,95.96
2022-12-09T22:46:28.540Z,96.00
2022-12-09T22:48:56.931Z,96.00
2022-12-09T22:51:27.981Z,95.96
2022-12-09T22:53:57.258Z,95.94
2022-12-09T22:56:26.258Z,95.90
2022-12-09T22:58:54.738Z,95.83
2022-12-09T23:01:24.325Z,95.83
2022-12-09T23:03:52.461Z,95.91
2022-12-09T23:06:20.532Z,95.87
2022-12-09T23:08:50.125Z,95.96
2022-12-09T23:11:20.221Z,95.90
2022-12-09T23:13:49.311Z,95.97
2022-12-09T23:16:19.703Z,95.94
2022-12-09T23:18:48.311Z,95.94
2022-12-09T23:21:17.746Z,95.99
2022-12-09T23:23:46.193Z,96.04
2022-12-09T23:26:17.881Z,96.00
2022-12-09T23:28:47.895Z,95.99
2022-12-09T23:31:17.510Z,96.01
2022-12-09T23:33:47.030Z,96.02
2022-12-09T23:36:16.863Z,96.01
2022-12-09T23:38:45.657Z,96.03
2022-12-09T23:41:17.269Z,96.05
2022-12-09T23:43:46.854Z,96.00
2022-12-09T23:46:17.055Z,95.99
2022-12-09T23:48:45.961Z,95.99
2022-12-09T23:51:16.053Z,95.96
2022-12-09T23:53:44.964Z,95.95
2022-12-09T23:56:16.091Z,95.95
2022-12-09T23:58:44.299Z,95.98
